createdAt,value
2018-12-09T00:00:41.994Z,98103.05
2018-12-09T00:01:47.614Z,98097.83
2018-12-09T00:02:54.226Z,98088.43
2018-12-09T00:03:59.711Z,98090.76
2018-12-09T00:05:04.665Z,98085.87
2018-12-09T00:06:10.036Z,98080.04
2018-12-09T00:07:15.660Z,98081.13
2018-12-09T00:08:21.327Z,98077.22
2018-12-09T00:09:26.557Z,98076.34
2018-12-09T00:10:32.282Z,98070.27
2018-12-09T00:11:37.929Z,98065.34
2018-12-09T00:12:43.520Z,98055.36
2018-12-09T00:13:49.131Z,98053.50
2018-12-09T00:14:54.767Z,98047.08
2018-12-09T00:16:00.405Z,98052.33
2018-12-09T00:17:06.000Z,98041.58
2018-12-09T00:18:11.593Z,98048.65
2018-12-09T00:19:17.181Z,98043.97
2018-12-09T00:20:22.782Z,98035.31
2018-12-09T00:21:28.401Z,98031.11
2018-12-09T00:22:34.011Z,98022.97
2018-12-09T00:23:39.605Z,98022.70
2018-12-09T00:24:45.200Z,98023.45
2018-12-09T00:25:50.817Z,98023.34
2018-12-09T00:26:56.439Z,98020.86
2018-12-09T00:28:02.033Z,98020.98
2018-12-09T00:29:07.834Z,98012.59
2018-12-09T00:30:13.513Z,98007.75
2018-12-09T00:31:19.161Z,97995.48
2018-12-09T00:32:24.773Z,98004.47
2018-12-09T00:33:30.407Z,98009.05
2018-12-09T00:34:36.029Z,98016.81
2018-12-09T00:35:41.628Z,98015.59
2018-12-09T00:36:47.287Z,98014.33
2018-12-09T00:37:52.941Z,98009.65
2018-12-09T00:38:58.581Z,97994.91
2018-12-09T00:40:03.429Z,97999.30
2018-12-09T00:41:09.085Z,97995.95
2018-12-09T00:42:14.702Z,98014.05
2018-12-09T00:43:20.882Z,98005.98
2018-12-09T00:44:27.049Z,97989.58
2018-12-09T00:45:32.691Z,97987.63
2018-12-09T00:46:38.330Z,97988.09
2018-12-09T00:47:44.000Z,97990.73
2018-12-09T00:48:49.273Z,97984.41
2018-12-09T00:49:54.890Z,97982.72
2018-12-09T00:51:00.516Z,97981.19
2018-12-09T00:52:06.140Z,97977.36
2018-12-09T00:53:11.412Z,97972.61
2018-12-09T00:54:17.045Z,97976.20
2018-12-09T00:55:22.643Z,97976.39
2018-12-09T00:56:28.292Z,97967.84
2018-12-09T00:57:33.916Z,97968.50
2018-12-09T00:58:39.517Z,97966.03
2018-12-09T00:59:45.191Z,97971.88
2018-12-09T01:00:50.842Z,97965.89
2018-12-09T01:01:56.480Z,97970.05
2018-12-09T01:03:02.065Z,97966.27
2018-12-09T01:04:07.668Z,97963.84
2018-12-09T01:05:13.275Z,97967.38
2018-12-09T01:06:18.880Z,97961.55
2018-12-09T01:07:24.580Z,97956.59
2018-12-09T01:08:30.210Z,97963.33
2018-12-09T01:09:35.815Z,97954.97
2018-12-09T01:10:41.396Z,97952.63
2018-12-09T01:11:47.710Z,97944.89
2018-12-09T01:12:53.793Z,97956.88
2018-12-09T01:13:59.411Z,97960.33
2018-12-09T01:15:04.336Z,97964.67
2018-12-09T01:16:09.953Z,97963.55
2018-12-09T01:17:15.591Z,97963.47
2018-12-09T01:18:21.181Z,97969.16
2018-12-09T01:19:26.768Z,97970.75
2018-12-09T01:20:32.439Z,97968.45
2018-12-09T01:21:38.103Z,97964.07
2018-12-09T01:22:43.708Z,97964.30
2018-12-09T01:23:49.427Z,97969.44
2018-12-09T01:24:55.115Z,97975.19
2018-12-09T01:26:00.406Z,97973.92
2018-12-09T01:27:06.020Z,97977.75
2018-12-09T01:28:11.628Z,97971.53
2018-12-09T01:29:17.230Z,97973.67
2018-12-09T01:30:22.853Z,97974.67
2018-12-09T01:31:28.182Z,97966.50
2018-12-09T01:32:33.841Z,97957.11
2018-12-09T01:33:39.485Z,97959.48
2018-12-09T01:34:45.083Z,97954.26
2018-12-09T01:35:50.708Z,97946.47
2018-12-09T01:36:56.340Z,97942.55
2018-12-09T01:38:01.958Z,97939.92
2018-12-09T01:39:07.350Z,97941.89
2018-12-09T01:40:12.602Z,97941.92
2018-12-09T01:41:18.212Z,97936.74
2018-12-09T01:42:24.804Z,97934.02
2018-12-09T01:43:30.401Z,97928.81
2018-12-09T01:44:36.023Z,97924.05
2018-12-09T01:45:41.623Z,97929.44
2018-12-09T01:46:47.355Z,97927.47
2018-12-09T01:47:53.008Z,97934.98
2018-12-09T01:48:58.609Z,97950.25
2018-12-09T01:50:03.505Z,97959.44
2018-12-09T01:51:09.154Z,97958.83
2018-12-09T01:52:14.804Z,97944.55
2018-12-09T01:55:02.927Z,97943.06
2018-12-09T01:56:08.528Z,97944.51
2018-12-09T01:57:14.193Z,97942.49
2018-12-09T01:58:19.851Z,97941.98
2018-12-09T01:59:25.443Z,97926.95
2018-12-09T02:00:31.101Z,97920.84
2018-12-09T02:01:35.357Z,97921.30
2018-12-09T02:02:39.977Z,97908.19
2018-12-09T02:03:44.565Z,97909.23
2018-12-09T02:04:49.149Z,97916.12
2018-12-09T02:05:54.797Z,97913.09
2018-12-09T02:07:01.360Z,97907.86
2018-12-09T02:08:06.964Z,97908.15
2018-12-09T02:09:12.589Z,97908.70
2018-12-09T02:10:18.292Z,97908.47
2018-12-09T02:11:23.907Z,97908.09
2018-12-09T02:12:30.693Z,97906.70
2018-12-09T02:13:36.321Z,97914.02
2018-12-09T02:14:41.973Z,97911.92
2018-12-09T02:15:47.683Z,97906.65
2018-12-09T02:16:52.960Z,97909.83
2018-12-09T02:17:58.584Z,97906.59
2018-12-09T02:19:17.715Z,97902.45
2018-12-09T02:20:23.334Z,97893.63
2018-12-09T02:21:28.928Z,97888.59
2018-12-09T02:22:34.560Z,97898.53
2018-12-09T02:23:40.204Z,97888.69
2018-12-09T02:24:45.887Z,97891.53
2018-12-09T02:25:51.530Z,97894.05
2018-12-09T02:26:57.168Z,97892.19
2018-12-09T02:28:02.797Z,97889.75
2018-12-09T02:29:08.445Z,97882.43
2018-12-09T02:30:13.726Z,97878.17
2018-12-09T02:31:19.381Z,97882.34
2018-12-09T02:32:25.055Z,97882.81
2018-12-09T02:33:30.301Z,97876.72
2018-12-09T02:34:35.601Z,97880.28
2018-12-09T02:35:49.063Z,97871.19
2018-12-09T02:36:54.712Z,97871.38
2018-12-09T02:38:00.316Z,97871.28
2018-12-09T02:39:05.604Z,97876.27
2018-12-09T02:40:11.201Z,97873.52
2018-12-09T02:41:16.458Z,97875.56
2018-12-09T02:42:22.240Z,97874.87
2018-12-09T02:43:28.463Z,97880.75
2018-12-09T02:44:34.122Z,97879.63
2018-12-09T02:45:39.754Z,97878.94
2018-12-09T02:46:45.432Z,97878.10
2018-12-09T02:47:51.045Z,97873.89
2018-12-09T02:48:56.660Z,97879.53
2018-12-09T02:50:02.292Z,97880.60
2018-12-09T02:51:07.172Z,97882.98
2018-12-09T02:52:12.424Z,97880.00
2018-12-09T02:53:17.452Z,97883.22
2018-12-09T02:54:22.731Z,97881.83
2018-12-09T02:55:29.064Z,97877.95
2018-12-09T02:56:34.701Z,97886.74
2018-12-09T02:57:40.365Z,97889.19
2018-12-09T02:58:46.987Z,97887.73
2018-12-09T02:59:52.625Z,97886.86
2018-12-09T03:00:57.551Z,97886.71
2018-12-09T03:02:03.241Z,97893.02
2018-12-09T03:03:09.421Z,97894.38
2018-12-09T03:04:15.957Z,97885.64
2018-12-09T03:05:21.233Z,97892.45
2018-12-09T03:06:26.845Z,97889.71
2018-12-09T03:07:33.467Z,97886.39
2018-12-09T03:08:39.093Z,97895.03
2018-12-09T03:09:44.742Z,97891.86
2018-12-09T03:10:50.441Z,97895.13
2018-12-09T03:11:56.077Z,97907.02
2018-12-09T03:13:01.744Z,97905.89
2018-12-09T03:14:07.357Z,97906.97
2018-12-09T03:15:13.020Z,97914.30
2018-12-09T03:16:19.558Z,97917.47
2018-12-09T03:17:25.160Z,97916.44
2018-12-09T03:18:30.780Z,97911.63
2018-12-09T03:19:36.402Z,97916.39
2018-12-09T03:20:42.024Z,97919.89
2018-12-09T03:21:47.665Z,97923.77
2018-12-09T03:22:53.405Z,97914.38
2018-12-09T03:23:59.016Z,97915.70
2018-12-09T03:25:04.308Z,97910.06
2018-12-09T03:26:09.945Z,97916.64
2018-12-09T03:27:15.553Z,97915.71
2018-12-09T03:28:22.064Z,97909.03
2018-12-09T03:29:27.347Z,97908.75
2018-12-09T03:30:32.983Z,97882.34
2018-12-09T03:31:38.615Z,97890.03
2018-12-09T03:32:45.513Z,97867.55
2018-12-09T03:33:51.105Z,97873.20
2018-12-09T03:34:56.501Z,97888.25
2018-12-09T03:36:02.150Z,97891.38
2018-12-09T03:37:07.799Z,97893.76
2018-12-09T03:38:13.465Z,97892.59
2018-12-09T03:39:19.292Z,97900.73
2018-12-09T03:40:26.164Z,97909.36
2018-12-09T03:41:31.640Z,97907.69
2018-12-09T03:42:36.988Z,97912.77
2018-12-09T03:43:44.342Z,97903.28
2018-12-09T03:44:52.172Z,97898.91
2018-12-09T03:45:57.869Z,97906.93
2018-12-09T03:47:03.436Z,97900.20
2018-12-09T03:48:08.715Z,97901.32
2018-12-09T03:49:14.336Z,97893.05
2018-12-09T03:50:21.995Z,97890.47
2018-12-09T03:51:27.641Z,97883.32
2018-12-09T03:52:33.272Z,97887.70
2018-12-09T03:53:39.039Z,97891.05
2018-12-09T03:54:44.692Z,97884.88
2018-12-09T03:55:50.284Z,97887.97
2018-12-09T03:56:57.361Z,97887.97
2018-12-09T03:58:03.001Z,97892.63
2018-12-09T03:59:08.648Z,97888.59
2018-12-09T04:00:14.985Z,97892.06
2018-12-09T04:01:20.693Z,97893.09
2018-12-09T04:02:26.343Z,97896.17
2018-12-09T04:03:32.008Z,97894.67
2018-12-09T04:04:39.019Z,97896.45
2018-12-09T04:05:45.432Z,97904.64
2018-12-09T04:06:51.025Z,97899.28
2018-12-09T04:07:56.739Z,97895.80
2018-12-09T04:09:02.716Z,97904.89
2018-12-09T04:10:08.431Z,97896.29
2018-12-09T04:11:15.356Z,97901.11
2018-12-09T04:12:21.486Z,97901.79
2018-12-09T04:13:27.567Z,97902.88
2018-12-09T04:14:33.224Z,97909.05
2018-12-09T04:15:41.057Z,97912.44
2018-12-09T04:16:46.486Z,97899.84
2018-12-09T04:17:52.145Z,97901.71
2018-12-09T04:18:57.816Z,97898.31
2018-12-09T04:20:04.194Z,97899.45
2018-12-09T04:21:09.810Z,97909.05
2018-12-09T04:22:15.040Z,97904.58
2018-12-09T04:23:22.288Z,97900.73
2018-12-09T04:24:29.355Z,97904.52
2018-12-09T04:25:36.733Z,97909.42
2018-12-09T04:26:42.437Z,97916.17
2018-12-09T04:27:48.354Z,97910.13
2018-12-09T04:28:53.982Z,97920.45
2018-12-09T04:29:59.660Z,97916.92
2018-12-09T04:31:05.261Z,97919.84
2018-12-09T04:32:12.075Z,97927.65
2018-12-09T04:33:17.749Z,97921.30
2018-12-09T04:34:23.366Z,97918.44
2018-12-09T04:35:28.976Z,97925.28
2018-12-09T04:36:35.509Z,97919.95
2018-12-09T04:37:41.581Z,97931.66
2018-12-09T04:38:47.609Z,97922.72
2018-12-09T04:39:53.761Z,97920.66
2018-12-09T04:41:00.711Z,97913.88
2018-12-09T04:42:07.196Z,97928.05
2018-12-09T04:43:13.755Z,97928.70
2018-12-09T04:44:19.380Z,97934.64
2018-12-09T04:45:26.337Z,97932.19
2018-12-09T04:46:32.812Z,97939.39
2018-12-09T04:47:38.473Z,97936.89
2018-12-09T04:48:45.024Z,97940.98
2018-12-09T04:49:50.662Z,97942.80
2018-12-09T04:50:56.922Z,97946.16
2018-12-09T04:52:02.555Z,97935.97
2018-12-09T04:53:08.521Z,97937.65
2018-12-09T04:54:14.140Z,97939.61
2018-12-09T04:55:19.757Z,97938.62
2018-12-09T04:56:26.256Z,97934.70
2018-12-09T04:57:32.470Z,97942.14
2018-12-09T04:58:38.138Z,97943.19
2018-12-09T04:59:43.117Z,97926.13
2018-12-09T05:00:53.348Z,97947.25
2018-12-09T05:01:59.348Z,97951.23
2018-12-09T05:03:05.267Z,97947.52
2018-12-09T05:04:12.304Z,97954.79
2018-12-09T05:05:18.490Z,97948.70
2018-12-09T05:06:24.518Z,97951.91
2018-12-09T05:07:31.045Z,97965.77
2018-12-09T05:08:37.226Z,97967.50
2018-12-09T05:09:44.812Z,97959.33
2018-12-09T05:10:50.404Z,97956.20
2018-12-09T05:11:56.907Z,97955.89
2018-12-09T05:13:02.675Z,97954.73
2018-12-09T05:14:08.881Z,97960.78
2018-12-09T05:15:14.816Z,97961.02
2018-12-09T05:16:20.465Z,97971.93
2018-12-09T05:17:26.274Z,97959.06
2018-12-09T05:18:31.936Z,97970.19
2018-12-09T05:19:37.909Z,97971.21
2018-12-09T05:20:43.495Z,97978.69
2018-12-09T05:21:49.662Z,97978.58
2018-12-09T05:22:55.701Z,97977.80
2018-12-09T05:24:01.332Z,97968.33
2018-12-09T05:25:07.639Z,97977.97
2018-12-09T05:26:13.452Z,97972.24
2018-12-09T05:27:19.060Z,97980.70
2018-12-09T05:28:24.693Z,97978.23
2018-12-09T05:29:30.384Z,97975.73
2018-12-09T05:30:36.048Z,97980.56
2018-12-09T05:31:41.707Z,97975.39
2018-12-09T05:32:48.288Z,97960.14
2018-12-09T05:33:54.480Z,97957.20
2018-12-09T05:35:00.102Z,97961.59
2018-12-09T05:36:06.224Z,97964.59
2018-12-09T05:37:11.984Z,97962.16
2018-12-09T05:38:18.014Z,97962.00
2018-12-09T05:39:24.281Z,97956.45
2018-12-09T05:40:30.439Z,97952.76
2018-12-09T05:41:36.108Z,97958.93
2018-12-09T05:42:42.595Z,97971.27
2018-12-09T05:43:48.816Z,97966.27
2018-12-09T05:44:54.451Z,97976.58
2018-12-09T05:46:00.052Z,97975.03
2018-12-09T05:47:06.128Z,97969.53
2018-12-09T05:48:11.834Z,97976.54
2018-12-09T05:49:17.988Z,97977.70
2018-12-09T05:50:23.589Z,97973.43
2018-12-09T05:51:28.812Z,97982.86
2018-12-09T05:52:34.889Z,97978.95
2018-12-09T05:53:40.528Z,97983.47
2018-12-09T05:54:46.149Z,97987.88
2018-12-09T05:55:51.733Z,97989.89
2018-12-09T05:56:57.344Z,97985.03
2018-12-09T05:58:02.956Z,97991.73
2018-12-09T05:59:08.600Z,97991.28
2018-12-09T06:00:13.876Z,97992.29
2018-12-09T06:01:19.453Z,97996.54
2018-12-09T06:02:36.387Z,98004.21
2018-12-09T06:03:42.086Z,98008.70
2018-12-09T06:04:47.717Z,98007.41
2018-12-09T06:05:53.351Z,98010.77
2018-12-09T06:06:59.096Z,98014.58
2018-12-09T06:08:04.651Z,98012.98
2018-12-09T06:09:10.251Z,98026.59
2018-12-09T06:10:15.578Z,98027.86
2018-12-09T06:11:21.211Z,98025.76
2018-12-09T06:12:26.853Z,98025.25
2018-12-09T06:13:32.488Z,98016.58
2018-12-09T06:14:38.180Z,98016.59
2018-12-09T06:15:43.760Z,98018.73
2018-12-09T06:16:49.376Z,98019.39
2018-12-09T06:17:55.003Z,98026.21
2018-12-09T06:19:00.618Z,98025.70
2018-12-09T06:20:05.507Z,98020.52
2018-12-09T06:21:11.120Z,98026.33
2018-12-09T06:22:16.726Z,98014.47
2018-12-09T06:23:22.300Z,98020.69
2018-12-09T06:24:27.925Z,98030.41
2018-12-09T06:25:33.572Z,98030.03
2018-12-09T06:26:39.160Z,98024.09
2018-12-09T06:27:44.770Z,98025.66
2018-12-09T06:28:50.420Z,98024.52
2018-12-09T06:29:56.036Z,98029.23
2018-12-09T06:31:01.681Z,98029.67
2018-12-09T06:32:07.266Z,98027.02
2018-12-09T06:33:12.903Z,98036.61
2018-12-09T06:34:18.552Z,98030.72
2018-12-09T06:35:24.199Z,98027.09
2018-12-09T06:36:29.884Z,98043.98
2018-12-09T06:37:35.183Z,98031.32
2018-12-09T06:38:40.840Z,98040.83
2018-12-09T06:39:46.442Z,98043.05
2018-12-09T06:40:52.024Z,98049.61
2018-12-09T06:41:57.619Z,98048.35
2018-12-09T06:43:03.187Z,98047.00
2018-12-09T06:44:08.843Z,98049.74
2018-12-09T06:45:13.767Z,98062.73
2018-12-09T06:46:19.413Z,98044.48
2018-12-09T06:47:25.051Z,98067.15
2018-12-09T06:48:30.688Z,98072.41
2018-12-09T06:49:36.301Z,98064.46
2018-12-09T06:50:41.900Z,98069.68
2018-12-09T06:51:47.466Z,98059.30
2018-12-09T06:52:53.085Z,98068.47
2018-12-09T06:53:58.739Z,98055.97
2018-12-09T06:55:03.637Z,98069.10
2018-12-09T06:56:09.293Z,98073.39
2018-12-09T06:57:14.950Z,98065.09
2018-12-09T06:58:20.570Z,98065.98
2018-12-09T06:59:26.176Z,98063.47
2018-12-09T07:00:31.791Z,98068.84
2018-12-09T07:01:37.437Z,98061.06
2018-12-09T07:02:43.055Z,98060.89
2018-12-09T07:03:49.233Z,98060.55
2018-12-09T07:04:54.821Z,98056.05
2018-12-09T07:06:00.464Z,98065.02
2018-12-09T07:07:06.063Z,98057.52
2018-12-09T07:08:11.693Z,98059.50
2018-12-09T07:09:17.305Z,98073.43
2018-12-09T07:10:22.999Z,98067.84
2018-12-09T07:11:28.641Z,98063.33
2018-12-09T07:12:34.252Z,98070.19
2018-12-09T07:13:39.832Z,98080.95
2018-12-09T07:14:45.712Z,98080.41
2018-12-09T07:15:51.453Z,98074.43
2018-12-09T07:16:57.656Z,98078.27
2018-12-09T07:18:04.513Z,98089.28
2018-12-09T07:19:12.549Z,98085.58
2018-12-09T07:20:18.686Z,98084.11
2018-12-09T07:21:25.574Z,98076.55
2018-12-09T07:22:32.295Z,98087.77
2018-12-09T07:23:39.013Z,98092.73
2018-12-09T07:24:45.930Z,98098.61
2018-12-09T07:25:52.568Z,98092.97
2018-12-09T07:26:59.291Z,98095.72
2018-12-09T07:28:05.901Z,98103.46
2018-12-09T07:29:13.120Z,98104.98
2018-12-09T07:30:19.911Z,98111.43
2018-12-09T07:31:27.536Z,98102.17
2018-12-09T07:32:34.717Z,98109.87
2018-12-09T07:33:41.512Z,98116.09
2018-12-09T07:34:48.859Z,98112.09
2018-12-09T07:35:56.405Z,98114.29
2018-12-09T07:37:03.655Z,98110.97
2018-12-09T07:38:10.255Z,98108.78
2018-12-09T07:39:17.180Z,98114.58
2018-12-09T07:40:23.959Z,98113.58
2018-12-09T07:41:30.742Z,98119.55
2018-12-09T07:42:37.449Z,98117.23
2018-12-09T07:43:44.714Z,98124.23
2018-12-09T07:44:52.642Z,98132.81
2018-12-09T07:45:59.140Z,98130.91
2018-12-09T07:47:05.714Z,98135.13
2018-12-09T07:48:12.465Z,98132.81
2018-12-09T07:49:19.249Z,98135.00
2018-12-09T07:50:26.732Z,98142.28
2018-12-09T07:51:33.568Z,98136.56
2018-12-09T07:52:40.367Z,98144.98
2018-12-09T07:53:48.252Z,98149.65
2018-12-09T07:54:54.821Z,98139.25
2018-12-09T07:56:01.288Z,98150.03
2018-12-09T07:57:07.809Z,98144.34
2018-12-09T07:58:14.448Z,98152.65
2018-12-09T07:59:21.201Z,98150.37
2018-12-09T08:00:28.247Z,98160.34
2018-12-09T08:01:35.224Z,98154.75
2018-12-09T08:02:41.870Z,98149.06
2018-12-09T08:03:48.991Z,98148.48
2018-12-09T08:04:56.250Z,98147.13
2018-12-09T08:06:04.040Z,98163.84
2018-12-09T08:07:11.321Z,98162.33
2018-12-09T08:08:17.963Z,98153.44
2018-12-09T08:09:25.720Z,98161.48
2018-12-09T08:10:32.865Z,98163.05
2018-12-09T08:11:39.627Z,98159.80
2018-12-09T08:12:46.646Z,98155.42
2018-12-09T08:13:53.381Z,98160.02
2018-12-09T08:15:00.524Z,98160.17
2018-12-09T08:16:07.455Z,98153.19
2018-12-09T08:17:14.253Z,98165.86
2018-12-09T08:18:21.639Z,98160.38
2018-12-09T08:19:28.442Z,98170.62
2018-12-09T08:20:35.111Z,98166.23
2018-12-09T08:21:41.768Z,98169.64
2018-12-09T08:22:49.479Z,98173.81
2018-12-09T08:23:56.120Z,98169.99
2018-12-09T08:25:02.880Z,98167.00
2018-12-09T08:26:09.205Z,98180.77
2018-12-09T08:27:15.491Z,98169.23
2018-12-09T08:28:22.260Z,98168.43
2018-12-09T08:29:29.093Z,98171.67
2018-12-09T08:30:36.221Z,98167.80
2018-12-09T08:31:43.053Z,98177.69
2018-12-09T08:32:49.625Z,98179.13
2018-12-09T08:33:55.744Z,98180.05
2018-12-09T08:35:01.979Z,98171.30
2018-12-09T08:36:07.784Z,98178.57
2018-12-09T08:37:14.245Z,98173.35
2018-12-09T08:38:20.896Z,98185.78
2018-12-09T08:39:27.847Z,98186.41
2018-12-09T08:40:33.793Z,98188.34
2018-12-09T08:41:40.105Z,98185.05
2018-12-09T08:42:48.086Z,98183.42
2018-12-09T08:43:54.208Z,98185.27
2018-12-09T08:45:01.423Z,98195.13
2018-12-09T08:46:07.532Z,98188.59
2018-12-09T08:47:13.104Z,98194.53
2018-12-09T08:48:18.672Z,98187.45
2018-12-09T08:49:24.268Z,98189.78
2018-12-09T08:50:29.888Z,98201.87
2018-12-09T08:51:35.478Z,98203.42
2018-12-09T08:52:41.055Z,98203.05
2018-12-09T08:53:46.668Z,98201.06
2018-12-09T08:54:52.317Z,98199.88
2018-12-09T08:55:57.943Z,98202.91
2018-12-09T08:57:03.559Z,98196.55
2018-12-09T08:58:09.207Z,98195.45
2018-12-09T08:59:14.840Z,98190.23
2018-12-09T09:00:20.490Z,98185.89
2018-12-09T09:01:26.138Z,98192.67
2018-12-09T09:02:31.791Z,98196.89
2018-12-09T09:03:37.452Z,98198.37
2018-12-09T09:04:43.093Z,98196.13
2018-12-09T09:05:48.716Z,98195.91
2018-12-09T09:06:54.049Z,98201.72
2018-12-09T09:07:59.722Z,98196.67
2018-12-09T09:09:04.630Z,98205.89
2018-12-09T09:10:10.396Z,98207.45
2018-12-09T09:11:16.012Z,98213.10
2018-12-09T09:12:21.597Z,98202.95
2018-12-09T09:13:27.197Z,98204.63
2018-12-09T09:14:32.800Z,98206.64
2018-12-09T09:15:38.411Z,98199.59
2018-12-09T09:16:44.001Z,98210.84
2018-12-09T09:17:49.620Z,98213.92
2018-12-09T09:18:55.241Z,98208.89
2018-12-09T09:20:00.864Z,98219.84
2018-12-09T09:21:05.766Z,98210.57
2018-12-09T09:22:11.407Z,98216.82
2018-12-09T09:23:17.038Z,98218.25
2018-12-09T09:24:22.657Z,98222.78
2018-12-09T09:25:29.656Z,98219.12
2018-12-09T09:26:35.332Z,98216.27
2018-12-09T09:27:40.949Z,98225.92
2018-12-09T09:28:46.573Z,98220.61
2018-12-09T09:29:52.241Z,98230.04
2018-12-09T09:30:57.856Z,98223.49
2018-12-09T09:32:03.126Z,98227.68
2018-12-09T09:33:08.732Z,98221.83
2018-12-09T09:34:14.382Z,98226.67
2018-12-09T09:35:20.049Z,98217.95
2018-12-09T09:36:25.342Z,98216.55
2018-12-09T09:37:30.974Z,98213.45
2018-12-09T09:38:36.584Z,98213.34
2018-12-09T09:39:42.279Z,98216.40
2018-12-09T09:40:47.952Z,98217.80
2018-12-09T09:41:53.533Z,98217.25
2018-12-09T09:42:59.152Z,98215.79
2018-12-09T09:44:04.747Z,98215.33
2018-12-09T09:45:10.382Z,98219.03
2018-12-09T09:46:16.007Z,98214.34
2018-12-09T09:47:21.613Z,98217.91
2018-12-09T09:48:27.256Z,98216.64
2018-12-09T09:49:32.888Z,98225.11
2018-12-09T09:50:38.580Z,98218.36
2018-12-09T09:51:44.181Z,98226.14
2018-12-09T09:52:49.821Z,98236.02
2018-12-09T09:53:55.465Z,98232.89
2018-12-09T09:55:01.063Z,98229.70
2018-12-09T09:56:06.710Z,98237.41
2018-12-09T09:57:12.318Z,98241.19
2018-12-09T09:58:18.011Z,98233.97
2018-12-09T09:59:23.607Z,98228.66
2018-12-09T10:00:29.201Z,98228.38
2018-12-09T10:01:34.771Z,98232.30
2018-12-09T10:02:40.409Z,98228.97
2018-12-09T10:03:46.044Z,98222.80
2018-12-09T10:04:51.628Z,98222.48
2018-12-09T10:05:57.266Z,98223.54
2018-12-09T10:07:02.875Z,98225.27
2018-12-09T10:08:08.529Z,98230.23
2018-12-09T10:09:14.132Z,98227.30
2018-12-09T10:10:19.874Z,98221.91
2018-12-09T10:11:25.582Z,98226.42
2018-12-09T10:12:31.240Z,98219.94
2018-12-09T10:13:36.928Z,98230.52
2018-12-09T10:14:42.517Z,98231.26
2018-12-09T10:15:48.185Z,98234.28
2018-12-09T10:16:53.814Z,98223.38
2018-12-09T10:17:59.455Z,98232.22
2018-12-09T10:19:04.707Z,98213.72
2018-12-09T10:20:10.341Z,98234.67
2018-12-09T10:21:16.011Z,98228.03
2018-12-09T10:22:21.624Z,98237.74
2018-12-09T10:23:27.232Z,98230.98
2018-12-09T10:24:32.844Z,98234.83
2018-12-09T10:25:38.488Z,98235.88
2018-12-09T10:26:44.141Z,98238.88
2018-12-09T10:27:49.742Z,98230.58
2018-12-09T10:28:55.316Z,98225.82
2018-12-09T10:30:00.934Z,98225.62
2018-12-09T10:31:06.592Z,98231.34
2018-12-09T10:32:12.226Z,98226.28
2018-12-09T10:33:17.479Z,98236.32
2018-12-09T10:34:23.121Z,98239.80
2018-12-09T10:35:28.735Z,98242.70
2018-12-09T10:36:34.367Z,98236.83
2018-12-09T10:37:40.016Z,98219.17
2018-12-09T10:38:45.597Z,98238.08
2018-12-09T10:39:51.234Z,98236.83
2018-12-09T10:40:56.898Z,98229.22
2018-12-09T10:42:02.508Z,98238.45
2018-12-09T10:43:08.085Z,98229.25
2018-12-09T10:44:13.682Z,98230.66
2018-12-09T10:45:19.294Z,98244.48
2018-12-09T10:46:24.934Z,98248.17
2018-12-09T10:47:30.540Z,98239.45
2018-12-09T10:48:36.175Z,98233.55
2018-12-09T10:49:41.788Z,98245.02
2018-12-09T10:50:47.436Z,98241.19
2018-12-09T10:51:53.049Z,98238.38
2018-12-09T10:52:58.652Z,98242.62
2018-12-09T10:54:04.249Z,98228.11
2018-12-09T10:55:10.431Z,98241.47
2018-12-09T10:56:16.623Z,98235.57
2018-12-09T10:57:22.254Z,98236.50
2018-12-09T10:58:27.863Z,98241.03
2018-12-09T10:59:33.435Z,98241.22
2018-12-09T11:00:44.442Z,98249.44
2018-12-09T11:01:52.674Z,98246.70
2018-12-09T11:02:58.337Z,98239.06
2018-12-09T11:04:03.464Z,98240.02
2018-12-09T11:05:09.109Z,98247.41
2018-12-09T11:06:14.512Z,98233.73
2018-12-09T11:07:20.092Z,98242.05
2018-12-09T11:08:25.704Z,98240.23
2018-12-09T11:09:31.318Z,98245.86
2018-12-09T11:10:36.949Z,98255.83
2018-12-09T11:11:42.632Z,98253.33
2018-12-09T11:12:48.228Z,98258.75
2018-12-09T11:13:58.097Z,98250.04
2018-12-09T11:14:59.613Z,98257.33
2018-12-09T11:16:05.398Z,98251.41
2018-12-09T11:17:11.699Z,98255.70
2018-12-09T11:18:16.967Z,98248.47
2018-12-09T11:19:22.634Z,98248.34
2018-12-09T11:20:28.294Z,98250.04
2018-12-09T11:21:33.942Z,98260.30
2018-12-09T11:22:39.513Z,98263.80
2018-12-09T11:23:45.120Z,98250.12
2018-12-09T11:24:50.749Z,98248.44
2018-12-09T11:25:56.369Z,98242.11
2018-12-09T11:27:01.978Z,98247.97
2018-12-09T11:28:07.554Z,98248.69
2018-12-09T11:29:13.172Z,98248.94
2018-12-09T11:30:18.779Z,98253.45
2018-12-09T11:31:24.446Z,98251.89
2018-12-09T11:32:30.095Z,98250.89
2018-12-09T11:33:35.692Z,98258.19
2018-12-09T11:34:41.300Z,98256.63
2018-12-09T11:35:46.927Z,98259.75
2018-12-09T11:36:52.657Z,98267.88
2018-12-09T11:37:58.214Z,98259.42
2018-12-09T11:39:03.233Z,98266.20
2018-12-09T11:40:08.893Z,98268.05
2018-12-09T11:41:14.499Z,98268.55
2018-12-09T11:42:20.160Z,98274.61
2018-12-09T11:43:25.783Z,98263.61
2018-12-09T11:44:31.166Z,98262.54
2018-12-09T11:45:36.764Z,98270.91
2018-12-09T11:46:42.371Z,98268.88
2018-12-09T11:47:47.778Z,98269.58
2018-12-09T11:48:53.363Z,98276.55
2018-12-09T11:49:59.072Z,98274.33
2018-12-09T11:51:04.030Z,98278.09
2018-12-09T11:52:09.699Z,98281.05
2018-12-09T11:53:15.299Z,98285.75
2018-12-09T11:54:20.903Z,98289.05
2018-12-09T11:55:26.179Z,98279.86
2018-12-09T11:56:31.856Z,98284.45
2018-12-09T11:57:37.518Z,98294.41
2018-12-09T11:58:43.136Z,98305.37
2018-12-09T11:59:51.357Z,98311.78
2018-12-09T12:00:57.098Z,98315.61
2018-12-09T12:02:02.859Z,98323.83
2018-12-09T12:03:08.534Z,98319.80
2018-12-09T12:04:13.881Z,98336.59
2018-12-09T12:05:19.505Z,98339.76
2018-12-09T12:06:25.094Z,98338.92
2018-12-09T12:07:30.760Z,98340.11
2018-12-09T12:08:36.471Z,98338.98
2018-12-09T12:09:42.152Z,98336.13
2018-12-09T12:10:47.764Z,98335.35
2018-12-09T12:11:53.355Z,98334.97
2018-12-09T12:12:58.973Z,98333.52
2018-12-09T12:14:04.286Z,98332.28
2018-12-09T12:15:09.589Z,98334.07
2018-12-09T12:16:15.243Z,98338.77
2018-12-09T12:17:20.938Z,98339.45
2018-12-09T12:18:26.548Z,98340.58
2018-12-09T12:19:32.140Z,98343.30
2018-12-09T12:20:37.748Z,98347.09
2018-12-09T12:21:43.374Z,98352.03
2018-12-09T12:22:48.994Z,98356.52
2018-12-09T12:23:54.655Z,98352.36
2018-12-09T12:25:00.275Z,98355.12
2018-12-09T12:26:05.637Z,98357.38
2018-12-09T12:27:11.510Z,98362.09
2018-12-09T12:28:17.118Z,98361.30
2018-12-09T12:29:22.729Z,98361.30
2018-12-09T12:30:28.361Z,98362.70
2018-12-09T12:31:33.968Z,98366.61
2018-12-09T12:32:39.223Z,98370.05
2018-12-09T12:33:44.840Z,98372.06
2018-12-09T12:34:50.526Z,98381.94
2018-12-09T12:35:56.181Z,98376.16
2018-12-09T12:37:01.818Z,98377.13
2018-12-09T12:38:07.417Z,98381.00
2018-12-09T12:39:13.067Z,98382.06
2018-12-09T12:40:18.739Z,98378.59
2018-12-09T12:41:24.381Z,98381.46
2018-12-09T12:42:30.117Z,98378.43
2018-12-09T12:43:35.280Z,98375.38
2018-12-09T12:44:40.923Z,98379.47
2018-12-09T12:45:46.501Z,98386.02
2018-12-09T12:46:52.176Z,98388.52
2018-12-09T12:47:57.842Z,98381.64
2018-12-09T12:49:03.119Z,98382.65
2018-12-09T12:50:08.725Z,98380.78
2018-12-09T12:51:14.390Z,98380.55
2018-12-09T12:52:20.072Z,98385.72
2018-12-09T12:53:25.333Z,98380.48
2018-12-09T12:54:30.947Z,98384.22
2018-12-09T12:55:36.524Z,98383.19